メインページ
METAR-TAF:

METAR-TAF

空港 :

Puerto Peñasco, メキシコ

緯度: 31-21-07N, 経度: 113-18-20W, 海抜: 22m

現時点の気象観測

当レポートは13時間42分前の14:56(UTC)に作成
無風
気温 6°C
湿度 70%
気圧 1017 hPa
視程: 16.1km
高度20000ftの雲はほとんどない

METAR: MMPE 161456Z 00000KT 10SM FEW200 06/01 A3002 RMK 8/080 RTS

時間: 21:38 (04:38 UTC)


TAF: 見つかりません

4,000以上の空港の気象観測と天気予報(METAR報とTAF報)

利用可能な観測所は地図上に黄色い丸と赤い丸で示す。

丸の上にカーソルを重ねると観測所名を参照できる。

次にクリックすると気象観測と天気予報を参照できる。

マップの切り替え:黒色「×」印の緑ボタンをクリックして拡大、「-」印の緑ボタンをクリックして縮小、緑色の三角印をクリックして隣りの地図に切り替え


METAR-TAF: